sensor_id;sensor_type;location;lat;lon;timestamp;P1;durP1;ratioP1;P2;durP2;ratioP2
7306;SDS011;3694;48.732;9.248;2022-07-29T00:01:31;10.30;;;9.40;;
7306;SDS011;3694;48.732;9.248;2022-07-29T00:03:57;10.87;;;9.87;;
7306;SDS011;3694;48.732;9.248;2022-07-29T00:06:22;10.50;;;9.60;;
7306;SDS011;3694;48.732;9.248;2022-07-29T00:08:48;11.27;;;9.60;;
7306;SDS011;3694;48.732;9.248;2022-07-29T00:11:13;10.80;;;9.80;;
7306;SDS011;3694;48.732;9.248;2022-07-29T00:13:39;10.80;;;9.90;;
7306;SDS011;3694;48.732;9.248;2022-07-29T00:16:04;10.57;;;9.70;;
7306;SDS011;3694;48.732;9.248;2022-07-29T00:18:30;10.67;;;9.77;;
7306;SDS011;3694;48.732;9.248;2022-07-29T00:20:56;10.40;;;9.47;;
7306;SDS011;3694;48.732;9.248;2022-07-29T00:23:22;10.60;;;9.73;;
7306;SDS011;3694;48.732;9.248;2022-07-29T00:25:47;10.50;;;9.40;;
7306;SDS011;3694;48.732;9.248;2022-07-29T00:28:13;10.60;;;9.70;;
7306;SDS011;3694;48.732;9.248;2022-07-29T00:30:38;11.07;;;9.97;;
7306;SDS011;3694;48.732;9.248;2022-07-29T00:33:04;10.70;;;9.70;;
7306;SDS011;3694;48.732;9.248;2022-07-29T00:35:30;10.57;;;9.77;;
7306;SDS011;3694;48.732;9.248;2022-07-29T00:38:11;10.33;;;9.33;;
7306;SDS011;3694;48.732;9.248;2022-07-29T00:40:38;11.00;;;9.90;;
7306;SDS011;3694;48.732;9.248;2022-07-29T00:43:04;11.33;;;10.17;;
7306;SDS011;3694;48.732;9.248;2022-07-29T00:45:30;11.93;;;10.90;;
7306;SDS011;3694;48.732;9.248;2022-07-29T00:47:56;12.83;;;11.70;;
7306;SDS011;3694;48.732;9.248;2022-07-29T00:50:22;11.10;;;10.20;;
7306;SDS011;3694;48.732;9.248;2022-07-29T00:52:48;11.73;;;10.77;;
7306;SDS011;3694;48.732;9.248;2022-07-29T00:55:15;12.30;;;11.20;;
7306;SDS011;3694;48.732;9.248;2022-07-29T00:57:42;11.57;;;10.63;;
7306;SDS011;3694;48.732;9.248;2022-07-29T01:00:10;11.57;;;10.53;;
7306;SDS011;3694;48.732;9.248;2022-07-29T01:02:37;11.77;;;10.57;;
7306;SDS011;3694;48.732;9.248;2022-07-29T01:05:04;11.43;;;10.43;;
7306;SDS011;3694;48.732;9.248;2022-07-29T01:07:30;12.53;;;11.53;;
7306;SDS011;3694;48.732;9.248;2022-07-29T01:09:58;12.13;;;10.93;;
7306;SDS011;3694;48.732;9.248;2022-07-29T01:12:25;11.33;;;10.37;;
7306;SDS011;3694;48.732;9.248;2022-07-29T01:14:53;11.43;;;10.43;;
7306;SDS011;3694;48.732;9.248;2022-07-29T01:17:21;11.23;;;10.13;;
7306;SDS011;3694;48.732;9.248;2022-07-29T01:25:38;11.30;;;10.30;;
7306;SDS011;3694;48.732;9.248;2022-07-29T01:28:39;11.60;;;10.43;;
7306;SDS011;3694;48.732;9.248;2022-07-29T01:32:01;10.57;;;9.77;;
7306;SDS011;3694;48.732;9.248;2022-07-29T01:34:18;11.17;;;10.17;;
7306;SDS011;3694;48.732;9.248;2022-07-29T01:36:48;12.07;;;10.80;;
7306;SDS011;3694;48.732;9.248;2022-07-29T01:39:38;10.67;;;9.77;;
7306;SDS011;3694;48.732;9.248;2022-07-29T01:42:27;10.77;;;9.87;;
7306;SDS011;3694;48.732;9.248;2022-07-29T01:45:06;10.43;;;9.53;;
7306;SDS011;3694;48.732;9.248;2022-07-29T01:47:39;10.40;;;9.53;;
7306;SDS011;3694;48.732;9.248;2022-07-29T01:50:10;10.77;;;9.80;;
7306;SDS011;3694;48.732;9.248;2022-07-29T01:52:49;10.13;;;9.33;;
7306;SDS011;3694;48.732;9.248;2022-07-29T01:55:22;10.37;;;9.37;;
7306;SDS011;3694;48.732;9.248;2022-07-29T01:57:52;9.70;;;8.87;;
7306;SDS011;3694;48.732;9.248;2022-07-29T02:00:19;10.20;;;9.40;;
7306;SDS011;3694;48.732;9.248;2022-07-29T02:02:46;10.80;;;9.90;;
7306;SDS011;3694;48.732;9.248;2022-07-29T02:05:14;10.43;;;9.53;;
7306;SDS011;3694;48.732;9.248;2022-07-29T02:07:42;10.77;;;9.53;;
7306;SDS011;3694;48.732;9.248;2022-07-29T02:10:09;8.83;;;8.13;;
7306;SDS011;3694;48.732;9.248;2022-07-29T02:12:37;10.70;;;9.80;;
7306;SDS011;3694;48.732;9.248;2022-07-29T02:15:04;10.40;;;9.50;;
7306;SDS011;3694;48.732;9.248;2022-07-29T02:17:37;9.40;;;8.60;;
7306;SDS011;3694;48.732;9.248;2022-07-29T02:20:06;10.07;;;9.27;;
7306;SDS011;3694;48.732;9.248;2022-07-29T02:22:35;9.53;;;8.63;;
7306;SDS011;3694;48.732;9.248;2022-07-29T02:25:02;9.87;;;8.87;;
7306;SDS011;3694;48.732;9.248;2022-07-29T02:27:29;9.20;;;8.40;;
7306;SDS011;3694;48.732;9.248;2022-07-29T02:29:58;9.63;;;8.83;;
7306;SDS011;3694;48.732;9.248;2022-07-29T02:32:27;9.83;;;9.03;;
7306;SDS011;3694;48.732;9.248;2022-07-29T02:34:54;10.60;;;9.70;;
7306;SDS011;3694;48.732;9.248;2022-07-29T02:37:21;10.53;;;9.63;;
7306;SDS011;3694;48.732;9.248;2022-07-29T02:39:47;10.07;;;9.07;;
7306;SDS011;3694;48.732;9.248;2022-07-29T02:42:17;10.77;;;9.77;;
7306;SDS011;3694;48.732;9.248;2022-07-29T02:44:43;10.50;;;9.60;;
7306;SDS011;3694;48.732;9.248;2022-07-29T02:49:36;10.60;;;9.60;;
7306;SDS011;3694;48.732;9.248;2022-07-29T02:52:12;10.63;;;9.73;;
7306;SDS011;3694;48.732;9.248;2022-07-29T02:54:58;11.10;;;10.10;;
7306;SDS011;3694;48.732;9.248;2022-07-29T02:57:34;10.93;;;9.90;;
7306;SDS011;3694;48.732;9.248;2022-07-29T03:00:06;10.83;;;9.93;;
7306;SDS011;3694;48.732;9.248;2022-07-29T03:02:34;12.60;;;11.40;;
7306;SDS011;3694;48.732;9.248;2022-07-29T03:05:03;12.10;;;11.00;;
7306;SDS011;3694;48.732;9.248;2022-07-29T03:07:29;11.07;;;10.17;;
7306;SDS011;3694;48.732;9.248;2022-07-29T03:09:56;12.37;;;11.33;;
7306;SDS011;3694;48.732;9.248;2022-07-29T03:12:22;11.57;;;10.67;;
7306;SDS011;3694;48.732;9.248;2022-07-29T03:14:48;12.07;;;10.90;;
7306;SDS011;3694;48.732;9.248;2022-07-29T03:17:14;11.83;;;10.83;;
7306;SDS011;3694;48.732;9.248;2022-07-29T03:19:41;12.13;;;11.13;;
7306;SDS011;3694;48.732;9.248;2022-07-29T03:22:07;12.60;;;11.50;;
7306;SDS011;3694;48.732;9.248;2022-07-29T03:24:34;12.70;;;11.50;;
7306;SDS011;3694;48.732;9.248;2022-07-29T03:27:01;12.40;;;11.47;;
7306;SDS011;3694;48.732;9.248;2022-07-29T03:29:27;11.37;;;10.47;;
7306;SDS011;3694;48.732;9.248;2022-07-29T03:31:53;11.17;;;10.23;;
7306;SDS011;3694;48.732;9.248;2022-07-29T03:34:19;13.33;;;12.30;;
7306;SDS011;3694;48.732;9.248;2022-07-29T03:36:45;11.17;;;10.17;;
7306;SDS011;3694;48.732;9.248;2022-07-29T03:39:10;11.43;;;10.53;;
7306;SDS011;3694;48.732;9.248;2022-07-29T03:41:39;11.13;;;10.03;;
7306;SDS011;3694;48.732;9.248;2022-07-29T03:44:06;11.33;;;10.33;;
7306;SDS011;3694;48.732;9.248;2022-07-29T03:46:33;10.97;;;10.00;;
7306;SDS011;3694;48.732;9.248;2022-07-29T03:49:01;11.77;;;10.77;;
7306;SDS011;3694;48.732;9.248;2022-07-29T03:51:29;11.07;;;10.03;;
7306;SDS011;3694;48.732;9.248;2022-07-29T03:53:55;11.53;;;10.43;;
7306;SDS011;3694;48.732;9.248;2022-07-29T03:56:21;11.73;;;10.60;;
7306;SDS011;3694;48.732;9.248;2022-07-29T03:58:51;12.63;;;11.60;;
7306;SDS011;3694;48.732;9.248;2022-07-29T04:01:18;12.67;;;11.57;;
7306;SDS011;3694;48.732;9.248;2022-07-29T04:03:44;12.30;;;11.13;;
7306;SDS011;3694;48.732;9.248;2022-07-29T04:06:10;12.20;;;11.30;;
7306;SDS011;3694;48.732;9.248;2022-07-29T04:08:36;12.40;;;11.30;;
7306;SDS011;3694;48.732;9.248;2022-07-29T04:11:02;13.10;;;11.90;;
7306;SDS011;3694;48.732;9.248;2022-07-29T04:13:29;12.73;;;11.63;;
7306;SDS011;3694;48.732;9.248;2022-07-29T04:15:55;11.53;;;10.53;;
7306;SDS011;3694;48.732;9.248;2022-07-29T04:18:21;10.70;;;9.80;;
7306;SDS011;3694;48.732;9.248;2022-07-29T04:20:46;10.20;;;9.40;;
7306;SDS011;3694;48.732;9.248;2022-07-29T04:23:12;10.93;;;9.83;;
7306;SDS011;3694;48.732;9.248;2022-07-29T04:25:40;9.87;;;8.97;;
7306;SDS011;3694;48.732;9.248;2022-07-29T04:28:07;9.53;;;8.73;;
7306;SDS011;3694;48.732;9.248;2022-07-29T04:30:33;8.87;;;8.27;;
7306;SDS011;3694;48.732;9.248;2022-07-29T04:33:00;8.63;;;7.80;;
7306;SDS011;3694;48.732;9.248;2022-07-29T04:35:27;8.07;;;7.37;;
7306;SDS011;3694;48.732;9.248;2022-07-29T04:37:53;7.80;;;7.20;;
7306;SDS011;3694;48.732;9.248;2022-07-29T04:40:19;7.90;;;7.30;;
7306;SDS011;3694;48.732;9.248;2022-07-29T04:42:45;7.93;;;7.33;;
7306;SDS011;3694;48.732;9.248;2022-07-29T04:45:11;9.43;;;8.00;;
7306;SDS011;3694;48.732;9.248;2022-07-29T04:47:37;7.90;;;7.23;;
7306;SDS011;3694;48.732;9.248;2022-07-29T04:50:02;7.37;;;6.80;;
7306;SDS011;3694;48.732;9.248;2022-07-29T04:52:28;7.97;;;7.20;;
7306;SDS011;3694;48.732;9.248;2022-07-29T04:54:54;7.77;;;7.17;;
7306;SDS011;3694;48.732;9.248;2022-07-29T04:57:19;8.17;;;7.37;;
7306;SDS011;3694;48.732;9.248;2022-07-29T04:59:45;7.27;;;6.67;;
7306;SDS011;3694;48.732;9.248;2022-07-29T05:02:10;7.90;;;7.10;;
7306;SDS011;3694;48.732;9.248;2022-07-29T05:04:36;7.60;;;6.90;;
7306;SDS011;3694;48.732;9.248;2022-07-29T05:07:01;7.77;;;7.17;;
7306;SDS011;3694;48.732;9.248;2022-07-29T05:09:27;7.20;;;6.57;;
7306;SDS011;3694;48.732;9.248;2022-07-29T05:11:52;7.50;;;6.90;;
7306;SDS011;3694;48.732;9.248;2022-07-29T05:14:18;7.37;;;6.73;;
7306;SDS011;3694;48.732;9.248;2022-07-29T05:16:43;6.47;;;5.87;;
7306;SDS011;3694;48.732;9.248;2022-07-29T05:19:09;6.40;;;5.90;;
7306;SDS011;3694;48.732;9.248;2022-07-29T05:21:35;5.67;;;5.27;;
7306;SDS011;3694;48.732;9.248;2022-07-29T05:24:00;6.50;;;5.90;;
7306;SDS011;3694;48.732;9.248;2022-07-29T05:26:26;6.03;;;4.93;;
7306;SDS011;3694;48.732;9.248;2022-07-29T05:28:51;5.00;;;4.63;;
7306;SDS011;3694;48.732;9.248;2022-07-29T05:31:18;4.30;;;3.47;;
7306;SDS011;3694;48.732;9.248;2022-07-29T05:33:44;4.60;;;3.20;;
7306;SDS011;3694;48.732;9.248;2022-07-29T05:36:10;4.43;;;3.10;;
7306;SDS011;3694;48.732;9.248;2022-07-29T05:38:36;2.90;;;2.70;;
7306;SDS011;3694;48.732;9.248;2022-07-29T05:41:02;4.03;;;2.80;;
7306;SDS011;3694;48.732;9.248;2022-07-29T05:43:28;3.17;;;2.47;;
7306;SDS011;3694;48.732;9.248;2022-07-29T05:45:54;3.50;;;2.70;;
7306;SDS011;3694;48.732;9.248;2022-07-29T05:48:20;3.00;;;2.70;;
7306;SDS011;3694;48.732;9.248;2022-07-29T05:50:46;3.07;;;2.67;;
7306;SDS011;3694;48.732;9.248;2022-07-29T05:53:11;4.00;;;2.77;;
7306;SDS011;3694;48.732;9.248;2022-07-29T05:55:37;4.40;;;2.70;;
7306;SDS011;3694;48.732;9.248;2022-07-29T05:58:02;3.73;;;2.90;;
7306;SDS011;3694;48.732;9.248;2022-07-29T06:00:28;3.43;;;3.10;;
7306;SDS011;3694;48.732;9.248;2022-07-29T06:02:54;3.90;;;2.77;;
7306;SDS011;3694;48.732;9.248;2022-07-29T06:05:20;5.80;;;3.17;;
7306;SDS011;3694;48.732;9.248;2022-07-29T06:07:45;3.50;;;3.20;;
7306;SDS011;3694;48.732;9.248;2022-07-29T06:10:11;2.85;;;2.65;;
7306;SDS011;3694;48.732;9.248;2022-07-29T06:12:36;3.55;;;3.00;;
7306;SDS011;3694;48.732;9.248;2022-07-29T06:15:02;3.65;;;3.33;;
7306;SDS011;3694;48.732;9.248;2022-07-29T06:17:28;3.28;;;2.97;;
7306;SDS011;3694;48.732;9.248;2022-07-29T06:19:54;3.28;;;2.85;;
7306;SDS011;3694;48.732;9.248;2022-07-29T06:22:19;3.47;;;3.17;;
7306;SDS011;3694;48.732;9.248;2022-07-29T06:24:45;3.15;;;2.85;;
7306;SDS011;3694;48.732;9.248;2022-07-29T06:27:10;3.20;;;2.92;;
7306;SDS011;3694;48.732;9.248;2022-07-29T06:29:36;3.10;;;2.80;;
7306;SDS011;3694;48.732;9.248;2022-07-29T06:32:02;5.32;;;3.35;;
7306;SDS011;3694;48.732;9.248;2022-07-29T06:34:28;5.07;;;2.72;;
7306;SDS011;3694;48.732;9.248;2022-07-29T06:36:54;4.03;;;2.50;;
7306;SDS011;3694;48.732;9.248;2022-07-29T06:39:19;3.03;;;2.00;;
7306;SDS011;3694;48.732;9.248;2022-07-29T06:41:48;2.53;;;1.98;;
7306;SDS011;3694;48.732;9.248;2022-07-29T06:44:15;3.20;;;1.83;;
7306;SDS011;3694;48.732;9.248;2022-07-29T06:46:42;2.10;;;2.00;;
7306;SDS011;3694;48.732;9.248;2022-07-29T06:49:08;3.58;;;1.70;;
7306;SDS011;3694;48.732;9.248;2022-07-29T06:51:34;1.90;;;1.80;;
7306;SDS011;3694;48.732;9.248;2022-07-29T06:54:00;1.70;;;1.60;;
7306;SDS011;3694;48.732;9.248;2022-07-29T06:56:26;2.80;;;1.80;;
7306;SDS011;3694;48.732;9.248;2022-07-29T06:58:52;1.90;;;1.80;;
7306;SDS011;3694;48.732;9.248;2022-07-29T07:01:17;2.90;;;1.67;;
7306;SDS011;3694;48.732;9.248;2022-07-29T07:03:44;2.13;;;1.75;;
7306;SDS011;3694;48.732;9.248;2022-07-29T07:06:10;2.75;;;1.80;;
7306;SDS011;3694;48.732;9.248;2022-07-29T07:08:35;1.92;;;1.83;;
7306;SDS011;3694;48.732;9.248;2022-07-29T07:11:01;5.03;;;2.10;;
7306;SDS011;3694;48.732;9.248;2022-07-29T07:13:27;3.30;;;1.83;;
7306;SDS011;3694;48.732;9.248;2022-07-29T07:15:56;2.55;;;2.00;;
7306;SDS011;3694;48.732;9.248;2022-07-29T07:18:21;3.35;;;2.17;;
7306;SDS011;3694;48.732;9.248;2022-07-29T07:20:47;2.80;;;2.03;;
7306;SDS011;3694;48.732;9.248;2022-07-29T07:23:12;4.25;;;2.30;;
7306;SDS011;3694;48.732;9.248;2022-07-29T07:25:38;2.72;;;2.17;;
7306;SDS011;3694;48.732;9.248;2022-07-29T07:28:03;2.03;;;1.90;;
7306;SDS011;3694;48.732;9.248;2022-07-29T07:30:29;2.40;;;2.08;;
7306;SDS011;3694;48.732;9.248;2022-07-29T07:32:55;2.75;;;2.20;;
7306;SDS011;3694;48.732;9.248;2022-07-29T07:35:21;3.67;;;2.20;;
7306;SDS011;3694;48.732;9.248;2022-07-29T07:37:47;2.38;;;2.17;;
7306;SDS011;3694;48.732;9.248;2022-07-29T07:40:12;2.60;;;2.40;;
7306;SDS011;3694;48.732;9.248;2022-07-29T07:42:38;4.05;;;2.28;;
7306;SDS011;3694;48.732;9.248;2022-07-29T07:45:05;2.40;;;2.20;;
7306;SDS011;3694;48.732;9.248;2022-07-29T07:47:34;2.20;;;2.00;;
7306;SDS011;3694;48.732;9.248;2022-07-29T07:50:00;2.15;;;1.90;;
7306;SDS011;3694;48.732;9.248;2022-07-29T07:52:25;2.17;;;1.92;;
7306;SDS011;3694;48.732;9.248;2022-07-29T07:54:51;2.42;;;2.22;;
7306;SDS011;3694;48.732;9.248;2022-07-29T07:57:17;3.78;;;2.25;;
7306;SDS011;3694;48.732;9.248;2022-07-29T07:59:43;2.38;;;2.17;;
7306;SDS011;3694;48.732;9.248;2022-07-29T08:02:09;3.47;;;2.22;;
7306;SDS011;3694;48.732;9.248;2022-07-29T08:04:34;2.45;;;2.30;;
7306;SDS011;3694;48.732;9.248;2022-07-29T08:07:00;3.10;;;2.50;;
7306;SDS011;3694;48.732;9.248;2022-07-29T08:09:27;4.60;;;2.50;;
7306;SDS011;3694;48.732;9.248;2022-07-29T08:11:53;2.70;;;2.47;;
7306;SDS011;3694;48.732;9.248;2022-07-29T08:14:19;5.38;;;2.90;;
7306;SDS011;3694;48.732;9.248;2022-07-29T08:16:45;4.10;;;2.90;;
7306;SDS011;3694;48.732;9.248;2022-07-29T08:19:11;2.65;;;2.45;;
7306;SDS011;3694;48.732;9.248;2022-07-29T08:21:37;4.13;;;2.47;;
7306;SDS011;3694;48.732;9.248;2022-07-29T08:24:03;2.90;;;2.60;;
7306;SDS011;3694;48.732;9.248;2022-07-29T08:26:47;3.42;;;2.85;;
7306;SDS011;3694;48.732;9.248;2022-07-29T08:29:13;3.72;;;2.75;;
7306;SDS011;3694;48.732;9.248;2022-07-29T08:31:38;3.70;;;2.72;;
7306;SDS011;3694;48.732;9.248;2022-07-29T08:34:04;3.50;;;2.78;;
7306;SDS011;3694;48.732;9.248;2022-07-29T08:36:31;4.55;;;2.55;;
7306;SDS011;3694;48.732;9.248;2022-07-29T08:38:58;2.90;;;2.70;;
7306;SDS011;3694;48.732;9.248;2022-07-29T08:41:24;4.93;;;2.72;;
7306;SDS011;3694;48.732;9.248;2022-07-29T08:43:51;2.80;;;2.60;;
7306;SDS011;3694;48.732;9.248;2022-07-29T08:46:17;4.72;;;2.80;;
7306;SDS011;3694;48.732;9.248;2022-07-29T08:48:44;3.40;;;3.10;;
7306;SDS011;3694;48.732;9.248;2022-07-29T08:51:12;3.22;;;2.97;;
7306;SDS011;3694;48.732;9.248;2022-07-29T08:53:40;4.88;;;3.00;;
7306;SDS011;3694;48.732;9.248;2022-07-29T08:56:08;3.38;;;2.70;;
7306;SDS011;3694;48.732;9.248;2022-07-29T08:58:37;3.40;;;3.00;;
7306;SDS011;3694;48.732;9.248;2022-07-29T09:01:03;3.22;;;3.00;;
7306;SDS011;3694;48.732;9.248;2022-07-29T09:03:30;3.10;;;2.65;;
7306;SDS011;3694;48.732;9.248;2022-07-29T09:05:57;3.40;;;2.95;;
7306;SDS011;3694;48.732;9.248;2022-07-29T09:08:23;3.00;;;2.70;;
7306;SDS011;3694;48.732;9.248;2022-07-29T09:10:50;5.82;;;3.30;;
7306;SDS011;3694;48.732;9.248;2022-07-29T09:13:16;3.28;;;2.97;;
7306;SDS011;3694;48.732;9.248;2022-07-29T09:15:43;5.57;;;3.60;;
7306;SDS011;3694;48.732;9.248;2022-07-29T09:18:09;3.75;;;3.45;;
7306;SDS011;3694;48.732;9.248;2022-07-29T09:20:34;3.33;;;2.88;;
7306;SDS011;3694;48.732;9.248;2022-07-29T09:23:38;4.40;;;3.25;;
7306;SDS011;3694;48.732;9.248;2022-07-29T09:26:06;3.30;;;3.10;;
7306;SDS011;3694;48.732;9.248;2022-07-29T09:28:32;3.38;;;3.08;;
7306;SDS011;3694;48.732;9.248;2022-07-29T09:30:58;4.18;;;2.97;;
7306;SDS011;3694;48.732;9.248;2022-07-29T09:33:24;3.08;;;2.83;;
7306;SDS011;3694;48.732;9.248;2022-07-29T09:36:02;4.90;;;3.17;;
7306;SDS011;3694;48.732;9.248;2022-07-29T09:38:29;3.25;;;2.95;;
7306;SDS011;3694;48.732;9.248;2022-07-29T09:40:58;5.50;;;3.40;;
7306;SDS011;3694;48.732;9.248;2022-07-29T09:43:25;4.13;;;3.50;;
7306;SDS011;3694;48.732;9.248;2022-07-29T09:45:51;4.25;;;3.35;;
7306;SDS011;3694;48.732;9.248;2022-07-29T09:48:18;4.28;;;3.35;;
7306;SDS011;3694;48.732;9.248;2022-07-29T09:50:46;3.70;;;3.40;;
7306;SDS011;3694;48.732;9.248;2022-07-29T09:53:36;4.00;;;3.60;;
7306;SDS011;3694;48.732;9.248;2022-07-29T09:56:03;3.75;;;3.33;;
7306;SDS011;3694;48.732;9.248;2022-07-29T09:58:29;4.07;;;3.10;;
7306;SDS011;3694;48.732;9.248;2022-07-29T10:00:56;5.35;;;3.70;;
7306;SDS011;3694;48.732;9.248;2022-07-29T10:03:22;3.95;;;3.63;;
7306;SDS011;3694;48.732;9.248;2022-07-29T10:06:03;4.70;;;3.65;;
7306;SDS011;3694;48.732;9.248;2022-07-29T10:08:33;4.95;;;3.30;;
7306;SDS011;3694;48.732;9.248;2022-07-29T10:13:54;4.53;;;3.40;;
7306;SDS011;3694;48.732;9.248;2022-07-29T10:16:20;3.78;;;3.47;;
7306;SDS011;3694;48.732;9.248;2022-07-29T10:18:45;4.60;;;3.30;;
7306;SDS011;3694;48.732;9.248;2022-07-29T10:21:12;4.47;;;3.72;;
7306;SDS011;3694;48.732;9.248;2022-07-29T10:23:38;6.13;;;3.85;;
7306;SDS011;3694;48.732;9.248;2022-07-29T10:26:04;4.63;;;3.97;;
7306;SDS011;3694;48.732;9.248;2022-07-29T10:28:31;5.28;;;3.75;;
7306;SDS011;3694;48.732;9.248;2022-07-29T10:31:01;3.88;;;3.58;;
7306;SDS011;3694;48.732;9.248;2022-07-29T10:33:34;4.18;;;3.78;;
7306;SDS011;3694;48.732;9.248;2022-07-29T10:36:45;4.63;;;3.25;;
7306;SDS011;3694;48.732;9.248;2022-07-29T10:39:20;4.15;;;3.58;;
7306;SDS011;3694;48.732;9.248;2022-07-29T10:42:01;4.57;;;3.60;;
7306;SDS011;3694;48.732;9.248;2022-07-29T10:44:43;4.10;;;3.55;;
7306;SDS011;3694;48.732;9.248;2022-07-29T10:47:22;4.45;;;3.83;;
7306;SDS011;3694;48.732;9.248;2022-07-29T10:49:56;4.07;;;3.67;;
7306;SDS011;3694;48.732;9.248;2022-07-29T10:55:38;4.00;;;3.60;;
7306;SDS011;3694;48.732;9.248;2022-07-29T10:58:20;4.65;;;3.80;;
7306;SDS011;3694;48.732;9.248;2022-07-29T11:00:52;7.28;;;3.70;;
7306;SDS011;3694;48.732;9.248;2022-07-29T11:06:16;4.82;;;3.97;;
7306;SDS011;3694;48.732;9.248;2022-07-29T11:08:42;4.95;;;3.90;;
7306;SDS011;3694;48.732;9.248;2022-07-29T11:11:30;6.72;;;4.15;;
7306;SDS011;3694;48.732;9.248;2022-07-29T11:13:56;4.18;;;3.75;;
7306;SDS011;3694;48.732;9.248;2022-07-29T11:16:21;3.40;;;3.10;;
7306;SDS011;3694;48.732;9.248;2022-07-29T11:21:35;8.63;;;4.67;;
7306;SDS011;3694;48.732;9.248;2022-07-29T11:24:15;7.77;;;4.00;;
7306;SDS011;3694;48.732;9.248;2022-07-29T11:27:04;6.03;;;3.10;;
7306;SDS011;3694;48.732;9.248;2022-07-29T11:29:48;5.00;;;3.60;;
7306;SDS011;3694;48.732;9.248;2022-07-29T11:32:18;3.50;;;3.20;;
7306;SDS011;3694;48.732;9.248;2022-07-29T11:34:46;3.20;;;2.90;;
7306;SDS011;3694;48.732;9.248;2022-07-29T11:47:31;4.33;;;4.03;;
7306;SDS011;3694;48.732;9.248;2022-07-29T11:49:58;4.37;;;3.97;;
7306;SDS011;3694;48.732;9.248;2022-07-29T11:52:35;11.53;;;4.53;;
7306;SDS011;3694;48.732;9.248;2022-07-29T11:55:08;4.00;;;3.63;;
7306;SDS011;3694;48.732;9.248;2022-07-29T11:57:35;4.97;;;4.13;;
7306;SDS011;3694;48.732;9.248;2022-07-29T12:00:02;4.90;;;4.43;;
7306;SDS011;3694;48.732;9.248;2022-07-29T12:02:43;4.80;;;4.40;;
7306;SDS011;3694;48.732;9.248;2022-07-29T12:05:09;5.20;;;3.93;;
7306;SDS011;3694;48.732;9.248;2022-07-29T12:07:39;3.73;;;3.37;;
7306;SDS011;3694;48.732;9.248;2022-07-29T12:10:05;4.17;;;3.80;;
7306;SDS011;3694;48.732;9.248;2022-07-29T12:12:31;4.23;;;3.70;;
7306;SDS011;3694;48.732;9.248;2022-07-29T12:15:09;5.40;;;3.77;;
7306;SDS011;3694;48.732;9.248;2022-07-29T12:17:36;4.20;;;3.23;;
7306;SDS011;3694;48.732;9.248;2022-07-29T12:20:03;3.63;;;3.33;;
7306;SDS011;3694;48.732;9.248;2022-07-29T12:25:04;3.90;;;3.40;;
7306;SDS011;3694;48.732;9.248;2022-07-29T12:27:32;3.43;;;3.17;;
7306;SDS011;3694;48.732;9.248;2022-07-29T12:29:58;3.97;;;3.60;;
7306;SDS011;3694;48.732;9.248;2022-07-29T12:32:32;4.00;;;3.70;;
7306;SDS011;3694;48.732;9.248;2022-07-29T12:35:03;4.43;;;3.60;;
7306;SDS011;3694;48.732;9.248;2022-07-29T12:37:34;3.83;;;3.53;;
7306;SDS011;3694;48.732;9.248;2022-07-29T12:40:02;3.60;;;3.13;;
7306;SDS011;3694;48.732;9.248;2022-07-29T12:42:29;3.87;;;3.53;;
7306;SDS011;3694;48.732;9.248;2022-07-29T12:44:54;4.00;;;3.43;;
7306;SDS011;3694;48.732;9.248;2022-07-29T12:47:20;5.00;;;3.17;;
7306;SDS011;3694;48.732;9.248;2022-07-29T12:49:46;3.57;;;3.27;;
7306;SDS011;3694;48.732;9.248;2022-07-29T12:52:29;3.40;;;3.20;;
7306;SDS011;3694;48.732;9.248;2022-07-29T12:54:56;5.47;;;4.10;;
7306;SDS011;3694;48.732;9.248;2022-07-29T12:57:22;4.33;;;3.90;;
7306;SDS011;3694;48.732;9.248;2022-07-29T13:00:05;4.60;;;4.10;;
7306;SDS011;3694;48.732;9.248;2022-07-29T13:02:36;5.43;;;4.60;;
7306;SDS011;3694;48.732;9.248;2022-07-29T13:05:03;4.33;;;3.97;;
7306;SDS011;3694;48.732;9.248;2022-07-29T13:07:30;5.33;;;4.40;;
7306;SDS011;3694;48.732;9.248;2022-07-29T13:12:36;4.70;;;4.27;;
7306;SDS011;3694;48.732;9.248;2022-07-29T13:15:11;4.77;;;4.37;;
7306;SDS011;3694;48.732;9.248;2022-07-29T13:17:41;5.17;;;4.67;;
7306;SDS011;3694;48.732;9.248;2022-07-29T13:20:09;5.10;;;4.60;;
7306;SDS011;3694;48.732;9.248;2022-07-29T13:22:40;5.13;;;4.57;;
7306;SDS011;3694;48.732;9.248;2022-07-29T13:25:07;5.43;;;4.77;;
7306;SDS011;3694;48.732;9.248;2022-07-29T13:27:35;8.73;;;4.90;;
7306;SDS011;3694;48.732;9.248;2022-07-29T13:30:03;6.67;;;5.33;;
7306;SDS011;3694;48.732;9.248;2022-07-29T13:32:30;7.57;;;5.63;;
7306;SDS011;3694;48.732;9.248;2022-07-29T13:34:57;7.63;;;6.20;;
7306;SDS011;3694;48.732;9.248;2022-07-29T13:37:25;8.13;;;6.43;;
7306;SDS011;3694;48.732;9.248;2022-07-29T13:39:51;7.27;;;6.57;;
7306;SDS011;3694;48.732;9.248;2022-07-29T13:42:18;7.60;;;6.87;;
7306;SDS011;3694;48.732;9.248;2022-07-29T13:44:44;7.87;;;7.00;;
7306;SDS011;3694;48.732;9.248;2022-07-29T13:47:10;8.53;;;7.73;;
7306;SDS011;3694;48.732;9.248;2022-07-29T13:49:35;9.80;;;8.27;;
7306;SDS011;3694;48.732;9.248;2022-07-29T13:52:01;8.23;;;7.60;;
7306;SDS011;3694;48.732;9.248;2022-07-29T13:54:28;9.10;;;8.27;;
7306;SDS011;3694;48.732;9.248;2022-07-29T13:56:53;8.57;;;7.87;;
7306;SDS011;3694;48.732;9.248;2022-07-29T13:59:19;8.53;;;7.83;;
7306;SDS011;3694;48.732;9.248;2022-07-29T14:01:44;8.17;;;7.37;;
7306;SDS011;3694;48.732;9.248;2022-07-29T14:04:10;7.90;;;7.10;;
7306;SDS011;3694;48.732;9.248;2022-07-29T14:06:36;8.00;;;7.23;;
7306;SDS011;3694;48.732;9.248;2022-07-29T14:09:01;7.00;;;6.40;;
7306;SDS011;3694;48.732;9.248;2022-07-29T14:11:30;7.00;;;6.40;;
7306;SDS011;3694;48.732;9.248;2022-07-29T14:13:56;6.73;;;6.13;;
7306;SDS011;3694;48.732;9.248;2022-07-29T14:16:22;6.57;;;5.90;;
7306;SDS011;3694;48.732;9.248;2022-07-29T14:18:48;8.17;;;5.57;;
7306;SDS011;3694;48.732;9.248;2022-07-29T14:21:13;6.23;;;5.30;;
7306;SDS011;3694;48.732;9.248;2022-07-29T14:23:39;6.97;;;5.83;;
7306;SDS011;3694;48.732;9.248;2022-07-29T14:26:05;6.53;;;5.90;;
7306;SDS011;3694;48.732;9.248;2022-07-29T14:28:31;6.70;;;6.00;;
7306;SDS011;3694;48.732;9.248;2022-07-29T14:30:56;7.80;;;5.73;;
7306;SDS011;3694;48.732;9.248;2022-07-29T14:33:22;9.17;;;6.20;;
7306;SDS011;3694;48.732;9.248;2022-07-29T14:35:48;7.53;;;6.53;;
7306;SDS011;3694;48.732;9.248;2022-07-29T14:38:14;7.10;;;6.40;;
7306;SDS011;3694;48.732;9.248;2022-07-29T14:40:39;7.10;;;6.47;;
7306;SDS011;3694;48.732;9.248;2022-07-29T14:43:05;6.97;;;6.33;;
7306;SDS011;3694;48.732;9.248;2022-07-29T14:45:30;6.73;;;6.03;;
7306;SDS011;3694;48.732;9.248;2022-07-29T14:47:56;7.23;;;6.53;;
7306;SDS011;3694;48.732;9.248;2022-07-29T14:50:22;6.53;;;5.93;;
7306;SDS011;3694;48.732;9.248;2022-07-29T14:52:47;7.30;;;6.60;;
7306;SDS011;3694;48.732;9.248;2022-07-29T14:55:13;7.77;;;6.10;;
7306;SDS011;3694;48.732;9.248;2022-07-29T14:57:38;8.47;;;6.37;;
7306;SDS011;3694;48.732;9.248;2022-07-29T15:00:05;7.97;;;6.97;;
7306;SDS011;3694;48.732;9.248;2022-07-29T15:02:32;6.90;;;6.20;;
7306;SDS011;3694;48.732;9.248;2022-07-29T15:04:58;7.83;;;6.50;;
7306;SDS011;3694;48.732;9.248;2022-07-29T15:07:23;10.77;;;6.83;;
7306;SDS011;3694;48.732;9.248;2022-07-29T15:09:49;7.23;;;6.50;;
7306;SDS011;3694;48.732;9.248;2022-07-29T15:12:14;14.27;;;6.70;;
7306;SDS011;3694;48.732;9.248;2022-07-29T15:14:40;8.63;;;6.90;;
7306;SDS011;3694;48.732;9.248;2022-07-29T15:17:06;7.80;;;7.00;;
7306;SDS011;3694;48.732;9.248;2022-07-29T15:19:31;7.27;;;6.57;;
7306;SDS011;3694;48.732;9.248;2022-07-29T15:21:57;7.07;;;6.37;;
7306;SDS011;3694;48.732;9.248;2022-07-29T15:24:23;6.40;;;5.80;;
7306;SDS011;3694;48.732;9.248;2022-07-29T15:26:48;6.70;;;6.10;;
7306;SDS011;3694;48.732;9.248;2022-07-29T15:29:14;7.00;;;5.40;;
7306;SDS011;3694;48.732;9.248;2022-07-29T15:31:40;5.53;;;4.40;;
7306;SDS011;3694;48.732;9.248;2022-07-29T15:34:06;6.03;;;4.53;;
7306;SDS011;3694;48.732;9.248;2022-07-29T15:36:31;5.07;;;4.57;;
7306;SDS011;3694;48.732;9.248;2022-07-29T15:38:57;8.10;;;4.97;;
7306;SDS011;3694;48.732;9.248;2022-07-29T15:41:22;8.00;;;4.80;;
7306;SDS011;3694;48.732;9.248;2022-07-29T15:43:48;5.57;;;5.07;;
7306;SDS011;3694;48.732;9.248;2022-07-29T15:46:16;5.30;;;4.80;;
7306;SDS011;3694;48.732;9.248;2022-07-29T15:49:02;5.73;;;5.00;;
7306;SDS011;3694;48.732;9.248;2022-07-29T15:51:29;5.50;;;5.00;;